createdAt,value
2018-03-15T00:01:19.605Z,85.08
2018-03-15T00:03:47.865Z,85.69
2018-03-15T00:06:16.913Z,85.61
2018-03-15T00:08:45.223Z,86.22
2018-03-15T00:11:13.509Z,86.29
2018-03-15T00:13:41.788Z,86.07
2018-03-15T00:16:10.073Z,86.12
2018-03-15T00:18:38.324Z,85.93
2018-03-15T00:21:06.579Z,85.80
2018-03-15T00:23:34.838Z,86.43
2018-03-15T00:26:03.108Z,86.53
2018-03-15T00:28:31.377Z,86.75
2018-03-15T00:31:00.430Z,86.38
2018-03-15T00:33:28.675Z,86.23
2018-03-15T00:35:56.960Z,86.51
2018-03-15T00:38:25.406Z,87.07
2018-03-15T00:40:53.702Z,87.36
2018-03-15T00:43:22.752Z,87.31
2018-03-15T00:45:51.026Z,87.74
2018-03-15T00:48:20.083Z,88.23
2018-03-15T00:50:48.339Z,88.31
2018-03-15T00:53:16.607Z,88.93
2018-03-15T00:55:45.629Z,88.50
2018-03-15T00:58:13.955Z,88.63
2018-03-15T01:00:42.232Z,89.63
2018-03-15T01:03:10.513Z,89.99
2018-03-15T01:05:38.785Z,89.64
2018-03-15T01:08:07.808Z,89.53
2018-03-15T01:10:36.086Z,89.98
2018-03-15T01:13:04.351Z,90.03
2018-03-15T01:15:32.609Z,90.02
2018-03-15T01:18:00.888Z,90.65
2018-03-15T01:20:29.175Z,90.22
2018-03-15T01:22:57.579Z,90.20
2018-03-15T01:25:25.928Z,91.21
2018-03-15T01:27:54.260Z,92.25
2018-03-15T01:30:22.521Z,92.00
2018-03-15T01:32:51.557Z,92.12
2018-03-15T01:35:20.567Z,91.85
2018-03-15T01:37:48.849Z,91.68
2018-03-15T01:40:17.110Z,91.43
2018-03-15T01:42:45.400Z,92.66
2018-03-15T01:45:13.731Z,91.80
2018-03-15T01:47:42.002Z,92.53
2018-03-15T01:50:10.324Z,92.45
2018-03-15T01:52:38.599Z,92.75
2018-03-15T01:55:06.903Z,92.85
2018-03-15T01:57:35.180Z,92.65
2018-03-15T02:00:03.443Z,92.57
2018-03-15T02:02:31.691Z,93.17
2018-03-15T02:05:00.823Z,93.54
2018-03-15T02:07:29.117Z,93.33
2018-03-15T02:09:57.505Z,93.76
2018-03-15T02:12:25.867Z,93.79
2018-03-15T02:14:55.071Z,93.54
2018-03-15T02:17:24.181Z,94.23
2018-03-15T02:19:52.492Z,94.20
2018-03-15T02:22:20.750Z,94.00
2018-03-15T02:24:49.073Z,94.43
2018-03-15T02:27:17.333Z,94.79
2018-03-15T02:29:45.609Z,95.26
2018-03-15T02:32:13.900Z,94.98
2018-03-15T02:34:42.170Z,95.78
2018-03-15T02:37:10.444Z,96.02
2018-03-15T02:39:38.727Z,96.38
2018-03-15T02:42:06.981Z,95.18
2018-03-15T02:44:36.069Z,94.47
2018-03-15T02:47:04.311Z,94.33
2018-03-15T02:49:32.600Z,94.55
2018-03-15T02:52:01.089Z,94.62
2018-03-15T02:54:29.404Z,94.71
2018-03-15T02:56:57.709Z,94.86
2018-03-15T02:59:26.059Z,94.89
2018-03-15T03:01:54.433Z,94.92
2018-03-15T03:04:22.738Z,95.25
2018-03-15T03:06:50.996Z,96.35
2018-03-15T03:09:20.094Z,97.07
2018-03-15T03:11:48.377Z,97.65
2018-03-15T03:14:16.707Z,97.76
2018-03-15T03:16:44.988Z,98.13
2018-03-15T03:19:13.274Z,98.48
2018-03-15T03:21:42.312Z,98.62
2018-03-15T03:24:10.561Z,98.04
2018-03-15T03:26:39.592Z,98.46
2018-03-15T03:29:07.831Z,98.81
2018-03-15T03:31:36.109Z,98.43
2018-03-15T03:34:04.384Z,98.08
2018-03-15T03:36:32.661Z,97.96
2018-03-15T03:39:01.048Z,97.64
2018-03-15T03:41:29.456Z,97.80
2018-03-15T03:43:57.749Z,98.27
2018-03-15T03:46:26.108Z,98.10
2018-03-15T03:48:54.502Z,98.13
2018-03-15T03:51:22.792Z,98.06
2018-03-15T03:53:51.044Z,98.17
2018-03-15T03:56:19.313Z,98.32
2018-03-15T03:58:48.332Z,98.44
2018-03-15T04:01:16.617Z,98.18
2018-03-15T04:03:44.926Z,98.28
2018-03-15T04:06:13.528Z,98.42
2018-03-15T04:08:43.450Z,97.76
2018-03-15T04:11:12.546Z,97.21
2018-03-15T04:13:41.582Z,97.36
2018-03-15T04:16:09.869Z,97.43
2018-03-15T04:18:38.892Z,97.53
2018-03-15T04:21:07.167Z,97.28
2018-03-15T04:23:36.206Z,97.82
2018-03-15T04:26:04.485Z,97.28
2018-03-15T04:28:33.570Z,97.24
2018-03-15T04:31:02.604Z,97.45
2018-03-15T04:33:30.987Z,97.35
2018-03-15T04:35:59.497Z,97.26
2018-03-15T04:38:27.824Z,97.03
2018-03-15T04:40:56.165Z,97.24
2018-03-15T04:43:24.456Z,97.07
2018-03-15T04:45:52.714Z,97.14
2018-03-15T04:48:21.750Z,96.83
2018-03-15T04:50:50.025Z,96.27
2018-03-15T04:53:18.300Z,96.11
2018-03-15T04:55:47.325Z,96.23
2018-03-15T04:58:15.621Z,95.88
2018-03-15T05:00:44.645Z,95.44
2018-03-15T05:03:12.969Z,94.92
2018-03-15T05:05:41.281Z,95.17
2018-03-15T05:08:09.508Z,94.74
2018-03-15T05:10:37.761Z,93.99
2018-03-15T05:13:06.804Z,93.95
2018-03-15T05:15:35.079Z,93.75
2018-03-15T05:18:03.340Z,93.79
2018-03-15T05:20:31.599Z,93.74
2018-03-15T05:22:59.936Z,93.93
2018-03-15T05:25:29.011Z,93.48
2018-03-15T05:27:57.351Z,93.17
2018-03-15T05:30:25.674Z,93.66
2018-03-15T05:32:53.989Z,92.85
2018-03-15T05:35:22.242Z,93.14
2018-03-15T05:37:50.506Z,93.04
2018-03-15T05:40:18.763Z,93.02
2018-03-15T05:42:47.048Z,92.75
2018-03-15T05:45:15.337Z,91.73
2018-03-15T05:47:43.659Z,91.52
2018-03-15T05:50:11.954Z,91.10
2018-03-15T05:52:40.203Z,90.10
2018-03-15T05:55:09.252Z,89.56
2018-03-15T05:57:37.491Z,89.13
2018-03-15T06:00:05.760Z,88.95
2018-03-15T06:02:34.030Z,88.79
2018-03-15T06:05:02.344Z,88.39
2018-03-15T06:07:30.629Z,87.95
2018-03-15T06:09:58.957Z,88.12
2018-03-15T06:12:28.048Z,87.46
2018-03-15T06:14:56.436Z,86.77
2018-03-15T06:17:24.769Z,86.46
2018-03-15T06:19:53.046Z,85.89
2018-03-15T06:22:22.106Z,85.26
2018-03-15T06:24:50.399Z,85.38
2018-03-15T06:27:18.657Z,84.87
2018-03-15T06:29:46.944Z,84.27
2018-03-15T06:32:15.196Z,84.02
2018-03-15T06:34:44.252Z,81.87
2018-03-15T06:37:12.517Z,81.86
2018-03-15T06:39:40.788Z,81.61
2018-03-15T06:42:09.207Z,81.54
2018-03-15T06:44:37.480Z,82.04
2018-03-15T06:47:06.501Z,81.12
2018-03-15T06:49:34.816Z,81.10
2018-03-15T06:52:03.854Z,81.19
2018-03-15T06:54:32.133Z,82.28
2018-03-15T06:57:00.433Z,82.49
2018-03-15T06:59:28.785Z,81.81
2018-03-15T07:01:57.207Z,83.02
2018-03-15T07:04:25.636Z,82.46
2018-03-15T07:06:54.001Z,80.66
2018-03-15T07:09:22.280Z,79.88
2018-03-15T07:11:50.567Z,78.33
2018-03-15T07:14:18.836Z,78.22
2018-03-15T07:16:47.940Z,77.72
2018-03-15T07:19:16.244Z,78.19
2018-03-15T07:21:44.601Z,78.39
2018-03-15T07:24:12.854Z,77.92
2018-03-15T07:26:41.156Z,77.63
2018-03-15T07:29:10.160Z,76.53
2018-03-15T07:31:39.250Z,76.00
2018-03-15T07:34:07.519Z,74.67
2018-03-15T07:36:35.795Z,74.63
2018-03-15T07:39:04.053Z,74.55
2018-03-15T07:41:33.101Z,73.72
2018-03-15T07:44:01.376Z,74.59
2018-03-15T07:46:29.704Z,74.62
2018-03-15T07:48:58.223Z,74.81
2018-03-15T07:51:27.401Z,73.20
2018-03-15T07:53:56.714Z,74.20
2018-03-15T07:56:25.107Z,72.65
2018-03-15T07:58:54.242Z,72.26
2018-03-15T08:01:22.533Z,72.22
2018-03-15T08:03:50.793Z,70.79
2018-03-15T08:06:19.138Z,70.74
2018-03-15T08:08:47.393Z,70.41
2018-03-15T08:11:15.738Z,70.86
2018-03-15T08:13:44.091Z,70.53
2018-03-15T08:16:12.385Z,68.79
2018-03-15T08:18:40.652Z,69.30
2018-03-15T08:21:09.689Z,69.28
2018-03-15T08:23:37.932Z,68.78
2018-03-15T08:26:06.278Z,69.30
2018-03-15T08:28:34.536Z,67.05
2018-03-15T08:31:03.560Z,67.80
2018-03-15T08:33:31.830Z,67.51
2018-03-15T08:36:00.944Z,67.34
2018-03-15T08:38:30.064Z,65.97
2018-03-15T08:40:59.199Z,64.53
2018-03-15T08:43:28.295Z,64.99
2018-03-15T08:45:56.646Z,65.29
2018-03-15T08:48:25.848Z,65.26
2018-03-15T08:50:54.159Z,65.02
2018-03-15T08:53:22.473Z,63.02
2018-03-15T08:55:50.728Z,63.66
2018-03-15T08:58:19.003Z,63.38
2018-03-15T09:00:47.270Z,60.89
2018-03-15T09:03:16.500Z,59.35
2018-03-15T09:05:44.762Z,59.64
2018-03-15T09:08:13.042Z,58.70
2018-03-15T09:10:41.300Z,59.15
2018-03-15T09:13:10.349Z,60.29
2018-03-15T09:15:38.604Z,57.90
2018-03-15T09:18:06.929Z,58.28
2018-03-15T09:20:35.916Z,57.97
2018-03-15T09:23:04.185Z,57.45
2018-03-15T09:25:32.468Z,58.40
2018-03-15T09:28:01.532Z,57.22
2018-03-15T09:30:30.564Z,55.78
2018-03-15T09:32:58.897Z,56.65
2018-03-15T09:35:27.252Z,57.54
2018-03-15T09:37:55.610Z,56.95
2018-03-15T09:40:23.924Z,56.33
2018-03-15T09:42:53.039Z,55.67
2018-03-15T09:45:21.345Z,56.01
2018-03-15T09:47:49.652Z,56.10
2018-03-15T09:50:17.934Z,54.43
2018-03-15T09:52:46.243Z,54.52
2018-03-15T09:55:14.597Z,54.71
2018-03-15T09:57:43.653Z,53.85
2018-03-15T10:00:11.950Z,54.18
2018-03-15T10:02:40.248Z,53.59
2018-03-15T10:05:08.528Z,53.60
2018-03-15T10:07:36.819Z,54.82
2018-03-15T10:10:05.098Z,53.67
2018-03-15T10:12:33.376Z,52.48
2018-03-15T10:15:01.655Z,52.43
2018-03-15T10:17:29.956Z,51.62
2018-03-15T10:19:58.258Z,52.70
2018-03-15T10:22:26.614Z,51.86
2018-03-15T10:24:54.986Z,51.27
2018-03-15T10:27:24.146Z,51.38
2018-03-15T10:29:52.457Z,50.07
2018-03-15T10:32:20.737Z,50.65
2018-03-15T10:34:49.035Z,49.95
2018-03-15T10:37:17.338Z,48.72
2018-03-15T10:39:45.576Z,47.80
2018-03-15T10:42:13.904Z,47.15
2018-03-15T10:44:42.972Z,46.13
2018-03-15T10:47:11.228Z,46.38
2018-03-15T10:49:40.263Z,46.99
2018-03-15T10:52:08.532Z,46.83
2018-03-15T10:54:36.836Z,46.64
2018-03-15T10:57:05.097Z,46.23
2018-03-15T10:59:34.149Z,46.00
2018-03-15T11:02:07.016Z,44.86
2018-03-15T11:04:41.676Z,44.18
2018-03-15T11:10:15.197Z,45.13
2018-03-15T11:12:44.237Z,45.92
2018-03-15T11:15:12.541Z,44.45
2018-03-15T11:17:40.819Z,44.86
2018-03-15T11:20:09.119Z,43.09
2018-03-15T11:22:37.384Z,44.04
2018-03-15T11:25:05.658Z,43.62
2018-03-15T11:27:33.926Z,44.42
2018-03-15T11:30:02.208Z,45.84
2018-03-15T11:32:30.484Z,44.44
2018-03-15T11:34:58.784Z,45.12
2018-03-15T11:37:27.149Z,43.61
2018-03-15T11:39:55.361Z,43.17
2018-03-15T11:42:23.652Z,44.31
2018-03-15T11:44:52.901Z,42.68
2018-03-15T11:47:21.186Z,42.00
2018-03-15T11:49:49.456Z,42.68
2018-03-15T11:52:17.757Z,43.53
2018-03-15T11:54:46.018Z,43.58
2018-03-15T11:57:14.292Z,43.85
2018-03-15T11:59:43.329Z,43.46
2018-03-15T12:02:11.624Z,42.21
2018-03-15T12:04:39.889Z,42.36
2018-03-15T12:07:08.199Z,42.32
2018-03-15T12:09:36.447Z,42.85
2018-03-15T12:12:06.091Z,42.38
2018-03-15T12:14:34.401Z,43.17
2018-03-15T12:17:02.699Z,42.85
2018-03-15T12:19:30.961Z,43.29
2018-03-15T12:22:00.030Z,43.32
2018-03-15T12:24:28.309Z,42.60
2018-03-15T12:26:56.596Z,43.21
2018-03-15T12:29:25.719Z,44.32
2018-03-15T12:31:54.696Z,43.87
2018-03-15T12:34:22.973Z,43.16
2018-03-15T12:36:51.255Z,40.73
2018-03-15T12:39:19.526Z,41.22
2018-03-15T12:41:47.806Z,39.73
2018-03-15T12:44:16.838Z,39.99
2018-03-15T12:46:45.117Z,40.83
2018-03-15T12:49:13.377Z,40.73
2018-03-15T12:51:42.427Z,40.19
2018-03-15T12:54:10.679Z,40.40
2018-03-15T12:56:39.727Z,41.80
2018-03-15T12:59:07.992Z,41.91
2018-03-15T13:01:36.268Z,42.45
2018-03-15T13:04:05.888Z,42.97
2018-03-15T13:06:34.936Z,42.06
2018-03-15T13:09:03.187Z,41.49
2018-03-15T13:11:31.461Z,41.96
2018-03-15T13:14:00.521Z,40.92
2018-03-15T13:16:28.780Z,40.82
2018-03-15T13:18:57.053Z,41.23
2018-03-15T13:21:26.083Z,39.76
2018-03-15T13:23:54.353Z,40.15
2018-03-15T13:26:23.389Z,40.98
2018-03-15T13:28:51.668Z,40.34
2018-03-15T13:31:19.961Z,41.19
2018-03-15T13:33:48.367Z,40.59
2018-03-15T13:36:16.634Z,40.13
2018-03-15T13:38:44.907Z,40.32
2018-03-15T13:41:13.923Z,40.21
2018-03-15T13:43:42.200Z,40.78
2018-03-15T13:46:11.969Z,41.07
2018-03-15T13:48:41.012Z,41.41
2018-03-15T13:51:09.278Z,41.74
2018-03-15T13:53:37.552Z,42.69
2018-03-15T13:56:06.628Z,42.66
2018-03-15T13:58:34.903Z,42.04
2018-03-15T14:01:03.927Z,42.91
2018-03-15T14:03:32.201Z,43.47
2018-03-15T14:06:01.232Z,44.63
2018-03-15T14:08:29.524Z,44.48
2018-03-15T14:10:57.823Z,45.50
2018-03-15T14:13:26.127Z,45.98
2018-03-15T14:15:54.404Z,46.08
2018-03-15T14:18:23.604Z,46.37
2018-03-15T14:20:51.880Z,46.92
2018-03-15T14:23:20.219Z,47.49
2018-03-15T14:25:48.496Z,47.66
2018-03-15T14:28:16.789Z,48.35
2018-03-15T14:30:45.096Z,48.45
2018-03-15T14:33:13.367Z,49.66
2018-03-15T14:35:42.429Z,49.22
2018-03-15T14:38:10.705Z,49.53
2018-03-15T14:40:39.747Z,49.83
2018-03-15T14:43:08.017Z,49.85
2018-03-15T14:45:36.302Z,50.39
2018-03-15T14:48:04.563Z,51.06
2018-03-15T14:50:32.857Z,50.63
2018-03-15T14:53:01.903Z,51.66
2018-03-15T14:55:30.198Z,51.68
2018-03-15T14:57:59.270Z,52.19
2018-03-15T15:00:27.505Z,52.31
2018-03-15T15:02:55.786Z,51.79
2018-03-15T15:05:24.088Z,52.52
2018-03-15T15:07:53.276Z,52.06
2018-03-15T15:10:21.568Z,52.23
2018-03-15T15:12:49.865Z,52.40
2018-03-15T15:15:18.888Z,52.22
2018-03-15T15:17:47.150Z,52.49
2018-03-15T15:20:15.439Z,52.79
2018-03-15T15:22:43.705Z,53.41
2018-03-15T15:25:11.988Z,53.39
2018-03-15T15:27:41.012Z,54.23
2018-03-15T15:30:09.293Z,53.89
2018-03-15T15:32:38.319Z,54.59
2018-03-15T15:35:06.607Z,54.86
2018-03-15T15:37:34.865Z,55.53
2018-03-15T15:40:03.901Z,55.41
2018-03-15T15:42:32.173Z,55.90
2018-03-15T15:45:00.446Z,55.46
2018-03-15T15:47:29.484Z,56.23
2018-03-15T15:49:57.743Z,56.52
2018-03-15T15:52:26.796Z,56.27
2018-03-15T15:54:55.057Z,56.48
2018-03-15T15:57:23.332Z,57.06
2018-03-15T15:59:52.366Z,57.22
2018-03-15T16:02:20.653Z,57.49
2018-03-15T16:04:48.931Z,58.63
2018-03-15T16:07:17.252Z,60.08
2018-03-15T16:09:45.512Z,59.58
2018-03-15T16:12:13.789Z,60.63
2018-03-15T16:14:42.085Z,59.98
2018-03-15T16:17:10.368Z,59.94
2018-03-15T16:19:39.486Z,59.89
2018-03-15T16:22:07.768Z,60.33
2018-03-15T16:24:36.190Z,60.38
2018-03-15T16:27:04.553Z,59.75
2018-03-15T16:29:32.896Z,60.45
2018-03-15T16:32:01.226Z,59.50
2018-03-15T16:34:30.403Z,59.93
2018-03-15T16:36:58.798Z,59.71
2018-03-15T16:39:27.091Z,59.62
2018-03-15T16:41:55.506Z,59.42
2018-03-15T16:44:24.643Z,59.88
2018-03-15T16:46:53.130Z,60.17
2018-03-15T16:49:21.749Z,60.91
2018-03-15T16:51:50.142Z,60.49
2018-03-15T16:54:18.647Z,60.35
2018-03-15T16:56:47.087Z,60.32
2018-03-15T16:59:15.577Z,60.30
2018-03-15T17:01:44.749Z,60.71
2018-03-15T17:04:13.213Z,60.48
2018-03-15T17:06:41.596Z,61.69
2018-03-15T17:09:09.977Z,61.61
2018-03-15T17:11:38.308Z,61.51
2018-03-15T17:14:06.639Z,62.09
2018-03-15T17:16:35.684Z,62.61
2018-03-15T17:19:03.986Z,62.57
2018-03-15T17:21:33.032Z,63.15
2018-03-15T17:24:01.360Z,63.70
2018-03-15T17:26:29.737Z,63.81
2018-03-15T17:28:58.031Z,63.71
2018-03-15T17:31:27.187Z,64.18
2018-03-15T17:33:56.361Z,64.96
2018-03-15T17:36:25.592Z,64.91
2018-03-15T17:38:54.217Z,65.34
2018-03-15T17:41:22.480Z,65.18
2018-03-15T17:43:51.419Z,65.55
2018-03-15T17:46:19.717Z,65.29
2018-03-15T17:48:49.115Z,65.07
2018-03-15T17:51:17.442Z,65.50
2018-03-15T17:53:45.833Z,66.18
2018-03-15T17:56:14.426Z,66.02
2018-03-15T17:58:44.472Z,66.59
2018-03-15T18:01:12.765Z,67.07
2018-03-15T18:03:41.389Z,66.99
2018-03-15T18:06:09.800Z,67.24
2018-03-15T18:08:38.154Z,67.20
2018-03-15T18:11:06.433Z,67.44
2018-03-15T18:13:34.770Z,67.48
2018-03-15T18:16:03.104Z,67.76
2018-03-15T18:18:31.581Z,67.68
2018-03-15T18:21:01.475Z,67.64
2018-03-15T18:23:29.782Z,67.74
2018-03-15T18:25:58.854Z,67.77
2018-03-15T18:28:27.169Z,68.00
2018-03-15T18:30:55.509Z,67.71
2018-03-15T18:33:24.532Z,68.20
2018-03-15T18:35:53.213Z,68.62
2018-03-15T18:38:21.569Z,68.24
2018-03-15T18:40:50.714Z,68.47
2018-03-15T18:43:19.262Z,68.29
2018-03-15T18:45:47.574Z,68.39
2018-03-15T18:48:16.772Z,68.91
2018-03-15T18:50:46.038Z,68.41
2018-03-15T18:53:14.419Z,68.44
2018-03-15T18:55:43.123Z,68.40
2018-03-15T18:58:11.441Z,69.11
2018-03-15T19:00:40.020Z,69.34
2018-03-15T19:03:08.327Z,70.13
2018-03-15T19:05:36.674Z,70.48
2018-03-15T19:08:05.442Z,70.58
2018-03-15T19:10:33.789Z,70.83
2018-03-15T19:13:02.039Z,70.90
2018-03-15T19:15:31.069Z,70.85
2018-03-15T19:17:59.332Z,71.07
2018-03-15T19:20:27.809Z,70.16
2018-03-15T19:22:56.193Z,70.62
2018-03-15T19:25:25.260Z,70.40
2018-03-15T19:27:54.279Z,70.04
2018-03-15T19:30:22.537Z,69.86
2018-03-15T19:32:50.817Z,69.83
2018-03-15T19:35:19.100Z,70.49
2018-03-15T19:37:47.965Z,70.15
2018-03-15T19:40:16.598Z,70.38
2018-03-15T19:42:44.872Z,70.07
2018-03-15T19:45:13.941Z,69.85
2018-03-15T19:47:42.198Z,69.25
2018-03-15T19:50:10.475Z,69.22
2018-03-15T19:52:38.741Z,68.40
2018-03-15T19:55:07.779Z,68.24
2018-03-15T19:57:36.040Z,66.95
2018-03-15T20:00:05.449Z,66.36
2018-03-15T20:02:34.534Z,66.09
2018-03-15T20:05:02.793Z,66.15
2018-03-15T20:07:31.096Z,66.81
2018-03-15T20:09:59.468Z,66.28
2018-03-15T20:12:27.739Z,66.82
2018-03-15T20:14:56.753Z,67.10
2018-03-15T20:17:25.021Z,66.56
2018-03-15T20:19:54.159Z,66.57
2018-03-15T20:22:27.929Z,66.67
2018-03-15T20:24:57.290Z,67.02
2018-03-15T20:27:31.010Z,67.34
2018-03-15T20:29:59.276Z,67.67
2018-03-15T20:32:34.659Z,68.29
2018-03-15T20:35:02.911Z,68.42
2018-03-15T20:37:31.956Z,68.21
2018-03-15T20:40:06.336Z,68.79
2018-03-15T20:42:35.373Z,69.17
2018-03-15T20:45:03.662Z,69.54
2018-03-15T20:47:37.517Z,70.06
2018-03-15T20:50:05.769Z,70.35
2018-03-15T20:52:34.069Z,70.91
2018-03-15T20:55:02.352Z,70.73
2018-03-15T20:57:31.377Z,70.67
2018-03-15T20:59:59.692Z,70.18
2018-03-15T21:02:29.112Z,70.46
2018-03-15T21:04:57.403Z,71.32
2018-03-15T21:07:25.666Z,71.21
2018-03-15T21:09:54.114Z,71.42
2018-03-15T21:12:23.165Z,71.77
2018-03-15T21:14:51.464Z,71.44
2018-03-15T21:17:21.084Z,71.84
2018-03-15T21:19:49.348Z,72.33
2018-03-15T21:22:17.606Z,73.05
2018-03-15T21:24:46.625Z,72.84
2018-03-15T21:27:14.934Z,73.59
2018-03-15T21:29:43.924Z,73.84
2018-03-15T21:32:12.185Z,74.63
2018-03-15T21:34:40.444Z,73.88
2018-03-15T21:37:08.721Z,74.33
2018-03-15T21:39:36.967Z,74.54
2018-03-15T21:42:06.097Z,74.13
2018-03-15T21:44:34.345Z,74.86
2018-03-15T21:47:02.631Z,74.83
2018-03-15T21:49:30.879Z,74.39
2018-03-15T21:51:59.147Z,74.79
2018-03-15T21:54:27.401Z,75.40
2018-03-15T21:56:58.186Z,75.20
2018-03-15T21:59:27.189Z,74.49
2018-03-15T22:01:55.481Z,74.52
2018-03-15T22:04:24.045Z,73.79
2018-03-15T22:06:52.342Z,74.28
2018-03-15T22:09:21.428Z,74.31
2018-03-15T22:11:49.808Z,73.91
2018-03-15T22:14:18.154Z,73.95
2018-03-15T22:16:46.443Z,74.06
2018-03-15T22:19:14.752Z,74.38
2018-03-15T22:21:43.056Z,73.99
2018-03-15T22:24:11.366Z,74.54
2018-03-15T22:26:39.688Z,74.67
2018-03-15T22:29:08.018Z,74.94
2018-03-15T22:31:36.307Z,74.54
2018-03-15T22:34:04.614Z,74.94
2018-03-15T22:36:32.903Z,74.88
2018-03-15T22:39:01.223Z,75.08
2018-03-15T22:41:30.293Z,75.84
2018-03-15T22:43:58.611Z,76.34
2018-03-15T22:46:26.934Z,76.95
2018-03-15T22:48:55.256Z,76.14
2018-03-15T22:51:23.577Z,76.76
2018-03-15T22:53:53.636Z,77.40
2018-03-15T22:56:21.957Z,77.61
2018-03-15T22:58:50.263Z,77.21
2018-03-15T23:01:18.569Z,77.49
2018-03-15T23:03:46.878Z,78.20
2018-03-15T23:06:15.932Z,78.40
2018-03-15T23:08:44.238Z,78.38
2018-03-15T23:11:12.718Z,78.31
2018-03-15T23:13:41.051Z,78.43
2018-03-15T23:16:10.132Z,78.68
2018-03-15T23:18:39.561Z,78.77
2018-03-15T23:21:07.874Z,78.88
2018-03-15T23:23:36.933Z,79.15
2018-03-15T23:26:05.246Z,79.49
2018-03-15T23:28:33.547Z,79.63
2018-03-15T23:31:01.851Z,79.67
2018-03-15T23:33:31.723Z,80.20
2018-03-15T23:36:00.030Z,80.00
2018-03-15T23:38:28.319Z,80.46
2018-03-15T23:40:56.625Z,80.80
2018-03-15T23:43:24.938Z,81.02
2018-03-15T23:45:54.011Z,81.55
2018-03-15T23:48:22.303Z,81.63
2018-03-15T23:50:50.601Z,81.71
2018-03-15T23:53:18.898Z,82.09
2018-03-15T23:55:48.397Z,82.16
2018-03-15T23:58:16.686Z,82.35
